sensor_id;sensor_type;location;lat;lon;timestamp;temperature;humidity
67131;HTU21D;54051;53.464;49.532;2023-01-08T00:01:04;-24.37;61.18
67131;HTU21D;54051;53.464;49.532;2023-01-08T00:03:41;-24.39;61.52
67131;HTU21D;54051;53.464;49.532;2023-01-08T00:06:18;-24.26;61.57
67131;HTU21D;54051;53.464;49.532;2023-01-08T00:08:55;-24.25;61.42
67131;HTU21D;54051;53.464;49.532;2023-01-08T00:11:31;-24.16;62.00
67131;HTU21D;54051;53.464;49.532;2023-01-08T00:14:07;-24.11;61.38
67131;HTU21D;54051;53.464;49.532;2023-01-08T00:16:43;-24.09;61.60
67131;HTU21D;54051;53.464;49.532;2023-01-08T00:19:19;-23.99;61.59
67131;HTU21D;54051;53.464;49.532;2023-01-08T00:21:55;-23.91;61.67
67131;HTU21D;54051;53.464;49.532;2023-01-08T00:24:38;-23.91;61.38
67131;HTU21D;54051;53.464;49.532;2023-01-08T00:27:14;-23.89;62.17
67131;HTU21D;54051;53.464;49.532;2023-01-08T00:29:50;-23.81;61.67
67131;HTU21D;54051;53.464;49.532;2023-01-08T00:32:26;-23.77;61.89
67131;HTU21D;54051;53.464;49.532;2023-01-08T00:35:02;-23.84;62.05
67131;HTU21D;54051;53.464;49.532;2023-01-08T00:37:38;-23.83;62.49
67131;HTU21D;54051;53.464;49.532;2023-01-08T00:40:14;-23.89;63.12
67131;HTU21D;54051;53.464;49.532;2023-01-08T00:42:50;-23.82;63.32
67131;HTU21D;54051;53.464;49.532;2023-01-08T00:45:26;-23.84;63.03
67131;HTU21D;54051;53.464;49.532;2023-01-08T00:48:02;-23.82;63.29
67131;HTU21D;54051;53.464;49.532;2023-01-08T00:50:40;-23.68;63.05
67131;HTU21D;54051;53.464;49.532;2023-01-08T00:53:17;-23.61;62.91
67131;HTU21D;54051;53.464;49.532;2023-01-08T00:56:03;-23.52;62.75
67131;HTU21D;54051;53.464;49.532;2023-01-08T00:58:39;-23.52;62.49
67131;HTU21D;54051;53.464;49.532;2023-01-08T01:01:15;-23.42;63.34
67131;HTU21D;54051;53.464;49.532;2023-01-08T01:03:51;-23.40;62.64
67131;HTU21D;54051;53.464;49.532;2023-01-08T01:06:27;-23.33;63.03
67131;HTU21D;54051;53.464;49.532;2023-01-08T01:09:03;-23.34;62.97
67131;HTU21D;54051;53.464;49.532;2023-01-08T01:11:39;-23.27;62.96
67131;HTU21D;54051;53.464;49.532;2023-01-08T01:14:15;-23.22;62.31
67131;HTU21D;54051;53.464;49.532;2023-01-08T01:16:51;-23.13;62.70
67131;HTU21D;54051;53.464;49.532;2023-01-08T01:19:27;-22.98;62.51
67131;HTU21D;54051;53.464;49.532;2023-01-08T01:22:04;-22.80;62.23
67131;HTU21D;54051;53.464;49.532;2023-01-08T01:24:40;-22.71;62.12
67131;HTU21D;54051;53.464;49.532;2023-01-08T01:27:16;-22.64;61.83
67131;HTU21D;54051;53.464;49.532;2023-01-08T01:29:52;-22.55;61.91
67131;HTU21D;54051;53.464;49.532;2023-01-08T01:32:28;-22.54;60.97
67131;HTU21D;54051;53.464;49.532;2023-01-08T01:35:04;-22.47;61.92
67131;HTU21D;54051;53.464;49.532;2023-01-08T01:37:40;-22.39;61.91
67131;HTU21D;54051;53.464;49.532;2023-01-08T01:40:16;-22.35;62.25
67131;HTU21D;54051;53.464;49.532;2023-01-08T01:42:52;-22.39;62.07
67131;HTU21D;54051;53.464;49.532;2023-01-08T01:45:28;-22.26;62.78
67131;HTU21D;54051;53.464;49.532;2023-01-08T01:48:05;-22.14;62.66
67131;HTU21D;54051;53.464;49.532;2023-01-08T01:50:48;-22.00;62.66
67131;HTU21D;54051;53.464;49.532;2023-01-08T01:53:26;-21.96;62.19
67131;HTU21D;54051;53.464;49.532;2023-01-08T01:56:04;-21.83;62.44
67131;HTU21D;54051;53.464;49.532;2023-01-08T01:58:40;-21.86;63.82
67131;HTU21D;54051;53.464;49.532;2023-01-08T02:01:16;-21.83;62.97
67131;HTU21D;54051;53.464;49.532;2023-01-08T02:03:52;-21.77;62.66
67131;HTU21D;54051;53.464;49.532;2023-01-08T02:09:33;-21.87;62.76
67131;HTU21D;54051;53.464;49.532;2023-01-08T02:12:14;-21.71;62.18
67131;HTU21D;54051;53.464;49.532;2023-01-08T02:20:20;-21.67;65.04
67131;HTU21D;54051;53.464;49.532;2023-01-08T02:31:32;-21.10;64.56
67131;HTU21D;54051;53.464;49.532;2023-01-08T02:34:10;-21.17;63.91
67131;HTU21D;54051;53.464;49.532;2023-01-08T02:36:50;-21.25;63.91
67131;HTU21D;54051;53.464;49.532;2023-01-08T02:42:33;-21.28;65.43
67131;HTU21D;54051;53.464;49.532;2023-01-08T02:45:22;-21.22;65.47
67131;HTU21D;54051;53.464;49.532;2023-01-08T02:50:50;-21.27;67.91
67131;HTU21D;54051;53.464;49.532;2023-01-08T02:53:29;-21.01;67.53
67131;HTU21D;54051;53.464;49.532;2023-01-08T02:56:10;-21.06;66.72
67131;HTU21D;54051;53.464;49.532;2023-01-08T02:58:47;-21.06;67.39
67131;HTU21D;54051;53.464;49.532;2023-01-08T03:01:23;-20.91;69.05
67131;HTU21D;54051;53.464;49.532;2023-01-08T03:04:05;-20.76;69.72
67131;HTU21D;54051;53.464;49.532;2023-01-08T03:06:42;-20.63;68.94
67131;HTU21D;54051;53.464;49.532;2023-01-08T03:09:18;-20.54;69.45
67131;HTU21D;54051;53.464;49.532;2023-01-08T03:11:56;-20.58;68.96
67131;HTU21D;54051;53.464;49.532;2023-01-08T03:14:49;-20.61;68.90
67131;HTU21D;54051;53.464;49.532;2023-01-08T03:17:29;-20.52;69.66
67131;HTU21D;54051;53.464;49.532;2023-01-08T03:20:07;-20.41;69.54
67131;HTU21D;54051;53.464;49.532;2023-01-08T03:22:46;-20.29;68.81
67131;HTU21D;54051;53.464;49.532;2023-01-08T03:25:23;-20.33;68.77
67131;HTU21D;54051;53.464;49.532;2023-01-08T03:28:02;-20.25;68.87
67131;HTU21D;54051;53.464;49.532;2023-01-08T03:30:39;-20.23;68.63
67131;HTU21D;54051;53.464;49.532;2023-01-08T03:33:15;-20.22;68.68
67131;HTU21D;54051;53.464;49.532;2023-01-08T03:35:53;-20.18;69.00
67131;HTU21D;54051;53.464;49.532;2023-01-08T03:38:31;-20.12;68.42
67131;HTU21D;54051;53.464;49.532;2023-01-08T03:41:09;-20.13;68.84
67131;HTU21D;54051;53.464;49.532;2023-01-08T03:43:47;-20.25;68.87
67131;HTU21D;54051;53.464;49.532;2023-01-08T03:46:27;-20.21;69.18
67131;HTU21D;54051;53.464;49.532;2023-01-08T03:49:04;-20.17;68.13
67131;HTU21D;54051;53.464;49.532;2023-01-08T03:51:42;-20.11;68.86
67131;HTU21D;54051;53.464;49.532;2023-01-08T03:54:22;-20.12;69.04
67131;HTU21D;54051;53.464;49.532;2023-01-08T03:56:59;-20.08;69.39
67131;HTU21D;54051;53.464;49.532;2023-01-08T03:59:35;-20.04;69.28
67131;HTU21D;54051;53.464;49.532;2023-01-08T04:02:11;-20.01;69.85
67131;HTU21D;54051;53.464;49.532;2023-01-08T04:04:47;-19.99;69.90
67131;HTU21D;54051;53.464;49.532;2023-01-08T04:07:23;-19.94;69.91
67131;HTU21D;54051;53.464;49.532;2023-01-08T04:09:59;-19.93;70.53
67131;HTU21D;54051;53.464;49.532;2023-01-08T04:12:35;-19.82;70.97
67131;HTU21D;54051;53.464;49.532;2023-01-08T04:15:11;-19.84;70.88
67131;HTU21D;54051;53.464;49.532;2023-01-08T04:17:47;-19.93;70.87
67131;HTU21D;54051;53.464;49.532;2023-01-08T04:20:23;-19.88;71.86
67131;HTU21D;54051;53.464;49.532;2023-01-08T04:22:59;-19.84;71.30
67131;HTU21D;54051;53.464;49.532;2023-01-08T04:25:36;-19.75;71.51
67131;HTU21D;54051;53.464;49.532;2023-01-08T04:28:12;-19.79;71.41
67131;HTU21D;54051;53.464;49.532;2023-01-08T04:30:49;-19.64;71.97
67131;HTU21D;54051;53.464;49.532;2023-01-08T04:33:24;-19.49;71.71
67131;HTU21D;54051;53.464;49.532;2023-01-08T04:36:01;-19.52;71.77
67131;HTU21D;54051;53.464;49.532;2023-01-08T04:38:37;-19.90;68.45
67131;HTU21D;54051;53.464;49.532;2023-01-08T04:41:13;-20.04;68.65
67131;HTU21D;54051;53.464;49.532;2023-01-08T04:43:49;-20.10;68.96
67131;HTU21D;54051;53.464;49.532;2023-01-08T04:46:25;-20.11;68.88
67131;HTU21D;54051;53.464;49.532;2023-01-08T04:49:04;-20.14;68.71
67131;HTU21D;54051;53.464;49.532;2023-01-08T04:51:40;-20.12;69.65
67131;HTU21D;54051;53.464;49.532;2023-01-08T04:54:16;-20.09;70.07
67131;HTU21D;54051;53.464;49.532;2023-01-08T04:56:55;-20.04;69.59
67131;HTU21D;54051;53.464;49.532;2023-01-08T04:59:31;-19.88;70.11
67131;HTU21D;54051;53.464;49.532;2023-01-08T05:02:07;-19.78;70.35
67131;HTU21D;54051;53.464;49.532;2023-01-08T05:04:42;-19.62;71.13
67131;HTU21D;54051;53.464;49.532;2023-01-08T05:07:18;-19.44;72.26
67131;HTU21D;54051;53.464;49.532;2023-01-08T05:09:54;-19.21;71.62
67131;HTU21D;54051;53.464;49.532;2023-01-08T05:12:30;-19.11;71.10
67131;HTU21D;54051;53.464;49.532;2023-01-08T05:15:07;-19.08;70.68
67131;HTU21D;54051;53.464;49.532;2023-01-08T05:17:43;-19.16;69.93
67131;HTU21D;54051;53.464;49.532;2023-01-08T05:20:19;-19.45;68.48
67131;HTU21D;54051;53.464;49.532;2023-01-08T05:22:55;-19.77;68.90
67131;HTU21D;54051;53.464;49.532;2023-01-08T05:26:11;-19.91;69.84
67131;HTU21D;54051;53.464;49.532;2023-01-08T05:29:02;-19.73;70.35
67131;HTU21D;54051;53.464;49.532;2023-01-08T05:31:38;-19.64;70.23
67131;HTU21D;54051;53.464;49.532;2023-01-08T05:34:24;-19.46;70.21
67131;HTU21D;54051;53.464;49.532;2023-01-08T05:37:00;-19.33;69.69
67131;HTU21D;54051;53.464;49.532;2023-01-08T05:39:36;-19.32;69.61
67131;HTU21D;54051;53.464;49.532;2023-01-08T05:42:12;-19.19;69.52
67131;HTU21D;54051;53.464;49.532;2023-01-08T05:44:48;-18.99;70.04
67131;HTU21D;54051;53.464;49.532;2023-01-08T05:47:27;-18.80;69.42
67131;HTU21D;54051;53.464;49.532;2023-01-08T05:50:04;-18.62;69.25
67131;HTU21D;54051;53.464;49.532;2023-01-08T05:52:40;-18.32;68.95
67131;HTU21D;54051;53.464;49.532;2023-01-08T05:55:16;-18.04;67.52
67131;HTU21D;54051;53.464;49.532;2023-01-08T05:57:52;-17.87;66.39
67131;HTU21D;54051;53.464;49.532;2023-01-08T06:00:28;-17.83;64.65
67131;HTU21D;54051;53.464;49.532;2023-01-08T06:03:04;-18.30;63.13
67131;HTU21D;54051;53.464;49.532;2023-01-08T06:05:40;-18.29;64.85
67131;HTU21D;54051;53.464;49.532;2023-01-08T06:08:16;-18.07;65.36
67131;HTU21D;54051;53.464;49.532;2023-01-08T06:10:52;-18.12;64.67
67131;HTU21D;54051;53.464;49.532;2023-01-08T06:13:28;-17.96;65.53
67131;HTU21D;54051;53.464;49.532;2023-01-08T06:16:04;-18.01;64.97
67131;HTU21D;54051;53.464;49.532;2023-01-08T06:18:41;-18.11;66.26
67131;HTU21D;54051;53.464;49.532;2023-01-08T06:21:16;-17.87;65.59
67131;HTU21D;54051;53.464;49.532;2023-01-08T06:23:52;-17.73;65.45
67131;HTU21D;54051;53.464;49.532;2023-01-08T06:26:28;-17.55;64.63
67131;HTU21D;54051;53.464;49.532;2023-01-08T06:29:04;-17.51;64.84
67131;HTU21D;54051;53.464;49.532;2023-01-08T06:31:40;-17.50;64.74
67131;HTU21D;54051;53.464;49.532;2023-01-08T06:34:16;-17.21;65.41
67131;HTU21D;54051;53.464;49.532;2023-01-08T06:36:52;-16.64;63.70
67131;HTU21D;54051;53.464;49.532;2023-01-08T06:39:28;-15.99;61.47
67131;HTU21D;54051;53.464;49.532;2023-01-08T06:42:04;-15.44;58.77
67131;HTU21D;54051;53.464;49.532;2023-01-08T06:44:40;-15.06;57.24
67131;HTU21D;54051;53.464;49.532;2023-01-08T06:47:16;-14.88;54.85
67131;HTU21D;54051;53.464;49.532;2023-01-08T06:49:52;-14.77;55.46
67131;HTU21D;54051;53.464;49.532;2023-01-08T06:52:29;-14.40;53.50
67131;HTU21D;54051;53.464;49.532;2023-01-08T06:55:05;-14.89;53.72
67131;HTU21D;54051;53.464;49.532;2023-01-08T06:57:41;-15.41;55.49
67131;HTU21D;54051;53.464;49.532;2023-01-08T07:00:20;-15.83;56.24
67131;HTU21D;54051;53.464;49.532;2023-01-08T07:02:58;-16.15;57.46
67131;HTU21D;54051;53.464;49.532;2023-01-08T07:05:37;-16.59;58.38
67131;HTU21D;54051;53.464;49.532;2023-01-08T07:08:15;-16.83;59.16
67131;HTU21D;54051;53.464;49.532;2023-01-08T07:10:52;-16.92;59.78
67131;HTU21D;54051;53.464;49.532;2023-01-08T07:13:28;-16.91;59.55
67131;HTU21D;54051;53.464;49.532;2023-01-08T07:19:11;-16.79;58.53
67131;HTU21D;54051;53.464;49.532;2023-01-08T07:21:47;-16.67;58.77
67131;HTU21D;54051;53.464;49.532;2023-01-08T07:24:22;-16.66;58.46
67131;HTU21D;54051;53.464;49.532;2023-01-08T07:26:58;-16.63;58.53
67131;HTU21D;54051;53.464;49.532;2023-01-08T07:29:34;-16.54;58.53
67131;HTU21D;54051;53.464;49.532;2023-01-08T07:32:10;-16.63;56.82
67131;HTU21D;54051;53.464;49.532;2023-01-08T07:34:46;-16.62;57.71
67131;HTU21D;54051;53.464;49.532;2023-01-08T07:37:22;-16.65;57.89
67131;HTU21D;54051;53.464;49.532;2023-01-08T07:39:58;-16.61;57.84
67131;HTU21D;54051;53.464;49.532;2023-01-08T07:42:34;-16.42;57.79
67131;HTU21D;54051;53.464;49.532;2023-01-08T07:45:11;-16.41;57.60
67131;HTU21D;54051;53.464;49.532;2023-01-08T07:47:47;-16.49;57.06
67131;HTU21D;54051;53.464;49.532;2023-01-08T07:50:23;-16.43;57.65
67131;HTU21D;54051;53.464;49.532;2023-01-08T07:52:59;-16.28;57.25
67131;HTU21D;54051;53.464;49.532;2023-01-08T07:55:35;-15.98;55.73
67131;HTU21D;54051;53.464;49.532;2023-01-08T07:58:12;-15.60;55.72
67131;HTU21D;54051;53.464;49.532;2023-01-08T08:00:49;-14.81;53.24
67131;HTU21D;54051;53.464;49.532;2023-01-08T08:03:25;-13.26;50.73
67131;HTU21D;54051;53.464;49.532;2023-01-08T08:06:01;-11.39;43.35
67131;HTU21D;54051;53.464;49.532;2023-01-08T08:08:37;-10.80;42.24
67131;HTU21D;54051;53.464;49.532;2023-01-08T08:11:13;-10.14;38.28
67131;HTU21D;54051;53.464;49.532;2023-01-08T08:13:49;-9.54;37.13
67131;HTU21D;54051;53.464;49.532;2023-01-08T08:16:25;-9.86;38.43
67131;HTU21D;54051;53.464;49.532;2023-01-08T08:19:01;-10.07;37.33
67131;HTU21D;54051;53.464;49.532;2023-01-08T08:21:37;-8.90;36.15
67131;HTU21D;54051;53.464;49.532;2023-01-08T08:24:13;-8.83;35.18
67131;HTU21D;54051;53.464;49.532;2023-01-08T08:26:49;-7.90;33.80
67131;HTU21D;54051;53.464;49.532;2023-01-08T08:29:25;-8.08;33.22
67131;HTU21D;54051;53.464;49.532;2023-01-08T08:32:01;-9.18;35.81
67131;HTU21D;54051;53.464;49.532;2023-01-08T08:34:37;-10.50;38.36
67131;HTU21D;54051;53.464;49.532;2023-01-08T08:37:13;-10.76;40.45
67131;HTU21D;54051;53.464;49.532;2023-01-08T08:39:49;-11.60;42.58
67131;HTU21D;54051;53.464;49.532;2023-01-08T08:42:25;-11.86;43.59
67131;HTU21D;54051;53.464;49.532;2023-01-08T08:45:01;-12.10;45.19
67131;HTU21D;54051;53.464;49.532;2023-01-08T08:47:37;-11.85;43.50
67131;HTU21D;54051;53.464;49.532;2023-01-08T08:50:14;-12.01;44.96
67131;HTU21D;54051;53.464;49.532;2023-01-08T08:52:49;-12.10;43.96
67131;HTU21D;54051;53.464;49.532;2023-01-08T08:55:26;-12.30;44.54
67131;HTU21D;54051;53.464;49.532;2023-01-08T08:58:06;-13.02;47.07
67131;HTU21D;54051;53.464;49.532;2023-01-08T09:00:48;-13.58;49.89
67131;HTU21D;54051;53.464;49.532;2023-01-08T09:03:24;-14.23;49.21
67131;HTU21D;54051;53.464;49.532;2023-01-08T09:06:00;-14.55;52.34
67131;HTU21D;54051;53.464;49.532;2023-01-08T09:08:36;-14.61;51.45
67131;HTU21D;54051;53.464;49.532;2023-01-08T09:11:12;-14.33;52.92
67131;HTU21D;54051;53.464;49.532;2023-01-08T09:13:48;-14.25;50.46
67131;HTU21D;54051;53.464;49.532;2023-01-08T09:16:24;-14.04;50.21
67131;HTU21D;54051;53.464;49.532;2023-01-08T09:19:00;-13.67;49.56
67131;HTU21D;54051;53.464;49.532;2023-01-08T09:21:36;-13.72;50.63
67131;HTU21D;54051;53.464;49.532;2023-01-08T09:24:12;-14.06;51.78
67131;HTU21D;54051;53.464;49.532;2023-01-08T09:26:48;-14.61;53.51
67131;HTU21D;54051;53.464;49.532;2023-01-08T09:29:24;-14.80;53.68
67131;HTU21D;54051;53.464;49.532;2023-01-08T09:32:00;-14.70;54.14
67131;HTU21D;54051;53.464;49.532;2023-01-08T09:34:37;-14.55;51.27
67131;HTU21D;54051;53.464;49.532;2023-01-08T09:37:14;-14.37;50.44
67131;HTU21D;54051;53.464;49.532;2023-01-08T09:39:50;-14.37;52.33
67131;HTU21D;54051;53.464;49.532;2023-01-08T09:42:26;-14.67;51.88
67131;HTU21D;54051;53.464;49.532;2023-01-08T09:45:03;-15.34;53.39
67131;HTU21D;54051;53.464;49.532;2023-01-08T09:47:40;-15.59;54.20
67131;HTU21D;54051;53.464;49.532;2023-01-08T09:50:18;-15.74;54.65
67131;HTU21D;54051;53.464;49.532;2023-01-08T09:52:55;-15.87;54.44
67131;HTU21D;54051;53.464;49.532;2023-01-08T09:55:32;-15.89;53.80
67131;HTU21D;54051;53.464;49.532;2023-01-08T10:01:13;-16.30;54.71
67131;HTU21D;54051;53.464;49.532;2023-01-08T10:09:33;-16.33;56.00
67131;HTU21D;54051;53.464;49.532;2023-01-08T10:12:09;-16.23;52.88
67131;HTU21D;54051;53.464;49.532;2023-01-08T10:14:46;-16.42;53.20
67131;HTU21D;54051;53.464;49.532;2023-01-08T10:17:26;-16.63;54.10
67131;HTU21D;54051;53.464;49.532;2023-01-08T10:20:14;-16.37;55.27
67131;HTU21D;54051;53.464;49.532;2023-01-08T10:22:51;-16.54;55.23
67131;HTU21D;54051;53.464;49.532;2023-01-08T10:25:28;-16.40;54.81
67131;HTU21D;54051;53.464;49.532;2023-01-08T10:28:05;-16.51;54.09
67131;HTU21D;54051;53.464;49.532;2023-01-08T10:30:41;-16.62;54.85
67131;HTU21D;54051;53.464;49.532;2023-01-08T10:36:02;-16.78;54.91
67131;HTU21D;54051;53.464;49.532;2023-01-08T10:38:41;-16.49;55.47
67131;HTU21D;54051;53.464;49.532;2023-01-08T10:44:05;-16.39;56.62
67131;HTU21D;54051;53.464;49.532;2023-01-08T10:46:56;-16.26;57.17
67131;HTU21D;54051;53.464;49.532;2023-01-08T10:49:36;-16.23;56.40
67131;HTU21D;54051;53.464;49.532;2023-01-08T10:52:29;-16.26;57.01
67131;HTU21D;54051;53.464;49.532;2023-01-08T10:55:22;-16.52;54.37
67131;HTU21D;54051;53.464;49.532;2023-01-08T11:00:35;-16.94;56.84
67131;HTU21D;54051;53.464;49.532;2023-01-08T11:03:20;-17.06;56.52
67131;HTU21D;54051;53.464;49.532;2023-01-08T11:06:08;-17.06;55.81
67131;HTU21D;54051;53.464;49.532;2023-01-08T11:08:48;-16.86;56.77
67131;HTU21D;54051;53.464;49.532;2023-01-08T11:11:30;-16.76;55.78
67131;HTU21D;54051;53.464;49.532;2023-01-08T11:17:09;-17.08;56.78
67131;HTU21D;54051;53.464;49.532;2023-01-08T11:19:46;-17.21;56.70
67131;HTU21D;54051;53.464;49.532;2023-01-08T11:22:23;-17.42;56.49
67131;HTU21D;54051;53.464;49.532;2023-01-08T11:24:59;-17.53;57.67
67131;HTU21D;54051;53.464;49.532;2023-01-08T11:27:36;-17.56;58.95
67131;HTU21D;54051;53.464;49.532;2023-01-08T11:30:18;-17.80;57.53
67131;HTU21D;54051;53.464;49.532;2023-01-08T11:33:08;-17.95;57.27
67131;HTU21D;54051;53.464;49.532;2023-01-08T11:35:49;-17.89;57.29
67131;HTU21D;54051;53.464;49.532;2023-01-08T11:38:29;-18.03;56.63
67131;HTU21D;54051;53.464;49.532;2023-01-08T11:41:15;-18.27;57.40
67131;HTU21D;54051;53.464;49.532;2023-01-08T11:55:14;-18.59;60.07
67131;HTU21D;54051;53.464;49.532;2023-01-08T11:58:07;-18.42;60.59
67131;HTU21D;54051;53.464;49.532;2023-01-08T12:03:32;-18.66;60.87
67131;HTU21D;54051;53.464;49.532;2023-01-08T12:08:58;-18.24;61.15
67131;HTU21D;54051;53.464;49.532;2023-01-08T12:11:40;-18.30;60.32
67131;HTU21D;54051;53.464;49.532;2023-01-08T12:22:43;-18.73;61.78
67131;HTU21D;54051;53.464;49.532;2023-01-08T12:30:43;-18.75;62.31
67131;HTU21D;54051;53.464;49.532;2023-01-08T12:36:24;-18.85;62.07
67131;HTU21D;54051;53.464;49.532;2023-01-08T12:39:02;-18.93;62.53
67131;HTU21D;54051;53.464;49.532;2023-01-08T12:41:38;-18.95;62.51
67131;HTU21D;54051;53.464;49.532;2023-01-08T12:44:21;-19.01;62.66
67131;HTU21D;54051;53.464;49.532;2023-01-08T12:46:57;-19.04;62.43
67131;HTU21D;54051;53.464;49.532;2023-01-08T12:49:47;-19.06;62.63
67131;HTU21D;54051;53.464;49.532;2023-01-08T12:52:28;-19.18;62.72
67131;HTU21D;54051;53.464;49.532;2023-01-08T12:55:32;-19.28;63.32
67131;HTU21D;54051;53.464;49.532;2023-01-08T13:03:46;-19.35;63.37
67131;HTU21D;54051;53.464;49.532;2023-01-08T13:06:22;-19.21;63.63
67131;HTU21D;54051;53.464;49.532;2023-01-08T13:09:02;-19.17;63.64
67131;HTU21D;54051;53.464;49.532;2023-01-08T13:11:38;-19.15;62.18
67131;HTU21D;54051;53.464;49.532;2023-01-08T13:14:18;-19.25;62.92
67131;HTU21D;54051;53.464;49.532;2023-01-08T13:17:04;-19.47;63.27
67131;HTU21D;54051;53.464;49.532;2023-01-08T13:19:42;-19.46;63.70
67131;HTU21D;54051;53.464;49.532;2023-01-08T13:22:29;-19.33;63.66
67131;HTU21D;54051;53.464;49.532;2023-01-08T13:27:54;-19.29;63.11
67131;HTU21D;54051;53.464;49.532;2023-01-08T13:41:56;-19.35;64.90
67131;HTU21D;54051;53.464;49.532;2023-01-08T13:44:37;-19.25;63.86
67131;HTU21D;54051;53.464;49.532;2023-01-08T13:50:04;-19.02;63.74
67131;HTU21D;54051;53.464;49.532;2023-01-08T13:52:44;-19.04;63.35
67131;HTU21D;54051;53.464;49.532;2023-01-08T13:55:27;-19.06;64.20
67131;HTU21D;54051;53.464;49.532;2023-01-08T13:58:16;-19.02;63.53
67131;HTU21D;54051;53.464;49.532;2023-01-08T14:00:53;-19.23;63.33
67131;HTU21D;54051;53.464;49.532;2023-01-08T14:03:30;-19.19;64.47
67131;HTU21D;54051;53.464;49.532;2023-01-08T14:06:12;-19.31;63.38
67131;HTU21D;54051;53.464;49.532;2023-01-08T14:09:00;-19.35;63.71
67131;HTU21D;54051;53.464;49.532;2023-01-08T14:11:43;-19.39;63.17
67131;HTU21D;54051;53.464;49.532;2023-01-08T14:14:20;-19.38;63.34
67131;HTU21D;54051;53.464;49.532;2023-01-08T14:16:57;-19.31;63.20
67131;HTU21D;54051;53.464;49.532;2023-01-08T14:19:33;-19.36;62.90
67131;HTU21D;54051;53.464;49.532;2023-01-08T14:22:12;-19.40;62.18
67131;HTU21D;54051;53.464;49.532;2023-01-08T14:24:51;-19.55;63.15
67131;HTU21D;54051;53.464;49.532;2023-01-08T14:27:29;-19.58;62.78
67131;HTU21D;54051;53.464;49.532;2023-01-08T14:30:13;-19.53;63.60
67131;HTU21D;54051;53.464;49.532;2023-01-08T14:32:50;-19.52;62.76
67131;HTU21D;54051;53.464;49.532;2023-01-08T14:35:31;-19.65;63.30
67131;HTU21D;54051;53.464;49.532;2023-01-08T14:38:11;-19.63;63.69
67131;HTU21D;54051;53.464;49.532;2023-01-08T14:40:49;-19.61;63.87
67131;HTU21D;54051;53.464;49.532;2023-01-08T14:43:42;-19.53;63.15
67131;HTU21D;54051;53.464;49.532;2023-01-08T14:46:20;-19.59;63.22
67131;HTU21D;54051;53.464;49.532;2023-01-08T14:48:57;-19.72;63.34
67131;HTU21D;54051;53.464;49.532;2023-01-08T14:51:33;-19.73;64.47
67131;HTU21D;54051;53.464;49.532;2023-01-08T14:54:12;-19.63;64.14
67131;HTU21D;54051;53.464;49.532;2023-01-08T14:56:50;-19.61;64.25
67131;HTU21D;54051;53.464;49.532;2023-01-08T14:59:28;-19.64;64.14
67131;HTU21D;54051;53.464;49.532;2023-01-08T15:02:06;-19.73;64.18
67131;HTU21D;54051;53.464;49.532;2023-01-08T15:04:58;-19.78;64.08
67131;HTU21D;54051;53.464;49.532;2023-01-08T15:07:35;-19.80;64.65
67131;HTU21D;54051;53.464;49.532;2023-01-08T15:13:22;-19.65;64.96
67131;HTU21D;54051;53.464;49.532;2023-01-08T15:16:06;-19.59;64.39
67131;HTU21D;54051;53.464;49.532;2023-01-08T15:18:50;-19.51;63.67
67131;HTU21D;54051;53.464;49.532;2023-01-08T15:21:30;-19.59;63.42
67131;HTU21D;54051;53.464;49.532;2023-01-08T15:24:06;-19.59;63.56
67131;HTU21D;54051;53.464;49.532;2023-01-08T15:26:42;-19.60;63.76
67131;HTU21D;54051;53.464;49.532;2023-01-08T15:29:21;-19.53;64.02
67131;HTU21D;54051;53.464;49.532;2023-01-08T15:35:13;-19.55;63.78
67131;HTU21D;54051;53.464;49.532;2023-01-08T15:37:50;-19.67;63.88
67131;HTU21D;54051;53.464;49.532;2023-01-08T15:40:27;-19.73;64.88
67131;HTU21D;54051;53.464;49.532;2023-01-08T15:43:03;-19.65;65.22
67131;HTU21D;54051;53.464;49.532;2023-01-08T15:45:55;-19.61;65.24
67131;HTU21D;54051;53.464;49.532;2023-01-08T15:48:31;-19.62;64.67
67131;HTU21D;54051;53.464;49.532;2023-01-08T15:51:07;-19.66;65.23
67131;HTU21D;54051;53.464;49.532;2023-01-08T15:53:43;-19.61;65.18
67131;HTU21D;54051;53.464;49.532;2023-01-08T15:56:19;-19.51;64.92
67131;HTU21D;54051;53.464;49.532;2023-01-08T15:58:55;-19.52;64.82
67131;HTU21D;54051;53.464;49.532;2023-01-08T16:01:32;-19.52;65.37
67131;HTU21D;54051;53.464;49.532;2023-01-08T16:04:08;-19.57;64.11
67131;HTU21D;54051;53.464;49.532;2023-01-08T16:06:44;-19.75;64.69
67131;HTU21D;54051;53.464;49.532;2023-01-08T16:09:20;-19.72;65.59
67131;HTU21D;54051;53.464;49.532;2023-01-08T16:11:56;-19.60;65.76
67131;HTU21D;54051;53.464;49.532;2023-01-08T16:14:32;-19.57;64.76
67131;HTU21D;54051;53.464;49.532;2023-01-08T16:17:09;-19.48;64.35
67131;HTU21D;54051;53.464;49.532;2023-01-08T16:19:45;-19.59;64.18
67131;HTU21D;54051;53.464;49.532;2023-01-08T16:22:21;-19.62;64.77
67131;HTU21D;54051;53.464;49.532;2023-01-08T16:24:57;-19.60;64.43
67131;HTU21D;54051;53.464;49.532;2023-01-08T16:27:33;-19.55;64.75
67131;HTU21D;54051;53.464;49.532;2023-01-08T16:30:10;-19.59;64.63
67131;HTU21D;54051;53.464;49.532;2023-01-08T16:32:51;-19.74;64.81
67131;HTU21D;54051;53.464;49.532;2023-01-08T16:35:30;-19.74;64.85
67131;HTU21D;54051;53.464;49.532;2023-01-08T16:38:07;-19.65;65.72
67131;HTU21D;54051;53.464;49.532;2023-01-08T16:40:51;-19.54;65.24
67131;HTU21D;54051;53.464;49.532;2023-01-08T16:46:53;-19.47;65.17
67131;HTU21D;54051;53.464;49.532;2023-01-08T16:49:31;-19.47;64.65
67131;HTU21D;54051;53.464;49.532;2023-01-08T16:52:08;-19.55;65.08
67131;HTU21D;54051;53.464;49.532;2023-01-08T16:54:44;-19.55;65.98
67131;HTU21D;54051;53.464;49.532;2023-01-08T16:57:20;-19.48;66.58
67131;HTU21D;54051;53.464;49.532;2023-01-08T16:59:56;-19.43;66.20
67131;HTU21D;54051;53.464;49.532;2023-01-08T17:02:32;-19.38;66.11
67131;HTU21D;54051;53.464;49.532;2023-01-08T17:05:08;-19.44;65.46
67131;HTU21D;54051;53.464;49.532;2023-01-08T17:07:44;-19.42;66.19
67131;HTU21D;54051;53.464;49.532;2023-01-08T17:10:21;-19.53;65.71
67131;HTU21D;54051;53.464;49.532;2023-01-08T17:12:58;-19.55;66.49
67131;HTU21D;54051;53.464;49.532;2023-01-08T17:15:37;-19.43;66.56
67131;HTU21D;54051;53.464;49.532;2023-01-08T17:18:13;-19.51;66.26
67131;HTU21D;54051;53.464;49.532;2023-01-08T17:20:51;-19.48;65.71
67131;HTU21D;54051;53.464;49.532;2023-01-08T17:23:28;-19.66;65.66
67131;HTU21D;54051;53.464;49.532;2023-01-08T17:26:05;-19.66;66.87
67131;HTU21D;54051;53.464;49.532;2023-01-08T17:28:42;-19.53;65.88
67131;HTU21D;54051;53.464;49.532;2023-01-08T17:31:18;-19.58;66.01
67131;HTU21D;54051;53.464;49.532;2023-01-08T17:33:55;-19.37;66.40
67131;HTU21D;54051;53.464;49.532;2023-01-08T17:36:31;-19.36;65.68
67131;HTU21D;54051;53.464;49.532;2023-01-08T17:39:07;-19.46;65.75
67131;HTU21D;54051;53.464;49.532;2023-01-08T17:41:43;-19.43;65.69
67131;HTU21D;54051;53.464;49.532;2023-01-08T17:44:40;-19.46;65.45